sensor_id;sensor_type;location;lat;lon;timestamp;temperature;humidity
10968;DHT22;5536;49.602;10.980;2023-05-21T00:00:41;18.40;99.90
10968;DHT22;5536;49.602;10.980;2023-05-21T00:03:09;18.40;99.90
10968;DHT22;5536;49.602;10.980;2023-05-21T00:05:38;18.40;99.90
10968;DHT22;5536;49.602;10.980;2023-05-21T00:08:05;18.30;99.90
10968;DHT22;5536;49.602;10.980;2023-05-21T00:10:33;18.30;99.90
10968;DHT22;5536;49.602;10.980;2023-05-21T00:13:00;18.30;99.90
10968;DHT22;5536;49.602;10.980;2023-05-21T00:15:27;18.30;99.90
10968;DHT22;5536;49.602;10.980;2023-05-21T00:17:55;18.20;99.90
10968;DHT22;5536;49.602;10.980;2023-05-21T00:20:23;18.20;99.90
10968;DHT22;5536;49.602;10.980;2023-05-21T00:22:50;18.10;99.90
10968;DHT22;5536;49.602;10.980;2023-05-21T00:25:18;18.10;99.90
10968;DHT22;5536;49.602;10.980;2023-05-21T00:27:45;18.10;99.90
10968;DHT22;5536;49.602;10.980;2023-05-21T00:30:12;18.10;99.90
10968;DHT22;5536;49.602;10.980;2023-05-21T00:32:41;18.10;99.90
10968;DHT22;5536;49.602;10.980;2023-05-21T00:35:08;18.00;99.90
10968;DHT22;5536;49.602;10.980;2023-05-21T00:37:36;18.00;99.90
10968;DHT22;5536;49.602;10.980;2023-05-21T00:40:04;18.00;99.90
10968;DHT22;5536;49.602;10.980;2023-05-21T00:42:33;17.90;99.90
10968;DHT22;5536;49.602;10.980;2023-05-21T00:45:04;17.90;99.90
10968;DHT22;5536;49.602;10.980;2023-05-21T00:47:32;17.90;99.90
10968;DHT22;5536;49.602;10.980;2023-05-21T00:50:00;17.90;99.90
10968;DHT22;5536;49.602;10.980;2023-05-21T00:52:28;18.00;99.90
10968;DHT22;5536;49.602;10.980;2023-05-21T00:54:57;17.90;99.90
10968;DHT22;5536;49.602;10.980;2023-05-21T00:57:25;17.90;99.90
10968;DHT22;5536;49.602;10.980;2023-05-21T00:59:53;17.90;99.90
10968;DHT22;5536;49.602;10.980;2023-05-21T01:02:20;17.90;99.90
10968;DHT22;5536;49.602;10.980;2023-05-21T01:04:49;17.90;99.90
10968;DHT22;5536;49.602;10.980;2023-05-21T01:07:16;17.90;99.90
10968;DHT22;5536;49.602;10.980;2023-05-21T01:09:43;17.90;99.90
10968;DHT22;5536;49.602;10.980;2023-05-21T01:12:12;17.90;99.90
10968;DHT22;5536;49.602;10.980;2023-05-21T01:14:40;17.90;99.90
10968;DHT22;5536;49.602;10.980;2023-05-21T01:17:07;17.80;99.90
10968;DHT22;5536;49.602;10.980;2023-05-21T01:19:36;17.80;99.90
10968;DHT22;5536;49.602;10.980;2023-05-21T01:22:04;17.80;99.90
10968;DHT22;5536;49.602;10.980;2023-05-21T01:24:33;17.80;99.90
10968;DHT22;5536;49.602;10.980;2023-05-21T01:27:01;17.80;99.90
10968;DHT22;5536;49.602;10.980;2023-05-21T01:29:29;17.80;99.90
10968;DHT22;5536;49.602;10.980;2023-05-21T01:32:02;17.70;99.90
10968;DHT22;5536;49.602;10.980;2023-05-21T01:34:36;17.70;99.90
10968;DHT22;5536;49.602;10.980;2023-05-21T01:37:13;17.70;99.90
10968;DHT22;5536;49.602;10.980;2023-05-21T01:39:48;17.70;99.90
10968;DHT22;5536;49.602;10.980;2023-05-21T01:42:18;17.70;99.90
10968;DHT22;5536;49.602;10.980;2023-05-21T01:44:48;17.70;99.90
10968;DHT22;5536;49.602;10.980;2023-05-21T01:47:17;17.60;99.90
10968;DHT22;5536;49.602;10.980;2023-05-21T01:49:44;17.70;99.90
10968;DHT22;5536;49.602;10.980;2023-05-21T01:52:12;17.60;99.90
10968;DHT22;5536;49.602;10.980;2023-05-21T01:54:39;17.60;99.90
10968;DHT22;5536;49.602;10.980;2023-05-21T01:57:07;17.60;99.90
10968;DHT22;5536;49.602;10.980;2023-05-21T01:59:34;17.50;99.90
10968;DHT22;5536;49.602;10.980;2023-05-21T02:02:02;17.50;99.90
10968;DHT22;5536;49.602;10.980;2023-05-21T02:04:29;17.50;99.90
10968;DHT22;5536;49.602;10.980;2023-05-21T02:06:57;17.50;99.90
10968;DHT22;5536;49.602;10.980;2023-05-21T02:09:24;17.50;99.90
10968;DHT22;5536;49.602;10.980;2023-05-21T02:11:51;17.50;99.90
10968;DHT22;5536;49.602;10.980;2023-05-21T02:14:20;17.50;99.90
10968;DHT22;5536;49.602;10.980;2023-05-21T02:16:47;17.50;99.90
10968;DHT22;5536;49.602;10.980;2023-05-21T02:19:14;17.50;99.90
10968;DHT22;5536;49.602;10.980;2023-05-21T02:21:41;17.50;99.90
10968;DHT22;5536;49.602;10.980;2023-05-21T02:24:08;17.40;99.90
10968;DHT22;5536;49.602;10.980;2023-05-21T02:26:36;17.30;99.90
10968;DHT22;5536;49.602;10.980;2023-05-21T02:29:03;17.30;99.90
10968;DHT22;5536;49.602;10.980;2023-05-21T02:31:31;17.30;99.90
10968;DHT22;5536;49.602;10.980;2023-05-21T02:33:58;17.30;99.90
10968;DHT22;5536;49.602;10.980;2023-05-21T02:36:26;17.30;99.90
10968;DHT22;5536;49.602;10.980;2023-05-21T02:38:53;17.30;99.90
10968;DHT22;5536;49.602;10.980;2023-05-21T02:41:22;17.30;99.90
10968;DHT22;5536;49.602;10.980;2023-05-21T02:43:49;17.30;99.90
10968;DHT22;5536;49.602;10.980;2023-05-21T02:46:16;17.30;99.90
10968;DHT22;5536;49.602;10.980;2023-05-21T02:48:45;17.30;99.90
10968;DHT22;5536;49.602;10.980;2023-05-21T02:51:12;17.30;99.90
10968;DHT22;5536;49.602;10.980;2023-05-21T02:53:39;17.30;99.90
10968;DHT22;5536;49.602;10.980;2023-05-21T02:56:06;17.20;99.90
10968;DHT22;5536;49.602;10.980;2023-05-21T02:58:33;17.20;99.90
10968;DHT22;5536;49.602;10.980;2023-05-21T03:01:00;17.10;99.90
10968;DHT22;5536;49.602;10.980;2023-05-21T03:03:27;17.10;99.90
10968;DHT22;5536;49.602;10.980;2023-05-21T03:05:56;17.10;99.90
10968;DHT22;5536;49.602;10.980;2023-05-21T03:08:23;17.10;99.90
10968;DHT22;5536;49.602;10.980;2023-05-21T03:10:51;17.10;99.90
10968;DHT22;5536;49.602;10.980;2023-05-21T03:13:18;17.00;99.90
10968;DHT22;5536;49.602;10.980;2023-05-21T03:15:45;17.10;99.90
10968;DHT22;5536;49.602;10.980;2023-05-21T03:18:12;17.00;99.90
10968;DHT22;5536;49.602;10.980;2023-05-21T03:20:39;17.10;99.90
10968;DHT22;5536;49.602;10.980;2023-05-21T03:23:09;17.10;99.90
10968;DHT22;5536;49.602;10.980;2023-05-21T03:25:38;17.00;99.90
10968;DHT22;5536;49.602;10.980;2023-05-21T03:28:05;17.10;99.90
10968;DHT22;5536;49.602;10.980;2023-05-21T03:30:34;17.00;99.90
10968;DHT22;5536;49.602;10.980;2023-05-21T03:33:02;17.00;99.90
10968;DHT22;5536;49.602;10.980;2023-05-21T03:35:31;17.10;99.90
10968;DHT22;5536;49.602;10.980;2023-05-21T03:37:58;17.10;99.90
10968;DHT22;5536;49.602;10.980;2023-05-21T03:40:26;17.10;99.90
10968;DHT22;5536;49.602;10.980;2023-05-21T03:42:53;17.10;99.90
10968;DHT22;5536;49.602;10.980;2023-05-21T03:45:20;17.00;99.90
10968;DHT22;5536;49.602;10.980;2023-05-21T03:47:47;17.00;99.90
10968;DHT22;5536;49.602;10.980;2023-05-21T03:50:14;17.00;99.90
10968;DHT22;5536;49.602;10.980;2023-05-21T03:52:41;17.10;99.90
10968;DHT22;5536;49.602;10.980;2023-05-21T03:55:09;17.10;99.90
10968;DHT22;5536;49.602;10.980;2023-05-21T03:57:37;17.00;99.90
10968;DHT22;5536;49.602;10.980;2023-05-21T04:00:05;17.10;99.90
10968;DHT22;5536;49.602;10.980;2023-05-21T04:02:34;17.10;99.90
10968;DHT22;5536;49.602;10.980;2023-05-21T04:05:02;17.10;99.90
10968;DHT22;5536;49.602;10.980;2023-05-21T04:07:29;17.00;99.90
10968;DHT22;5536;49.602;10.980;2023-05-21T04:09:56;17.10;99.90
10968;DHT22;5536;49.602;10.980;2023-05-21T04:12:24;17.10;99.90
10968;DHT22;5536;49.602;10.980;2023-05-21T04:14:52;17.10;99.90
10968;DHT22;5536;49.602;10.980;2023-05-21T04:17:19;17.10;99.90
10968;DHT22;5536;49.602;10.980;2023-05-21T04:19:46;17.10;99.90
10968;DHT22;5536;49.602;10.980;2023-05-21T04:22:13;17.10;99.90
10968;DHT22;5536;49.602;10.980;2023-05-21T04:24:41;17.10;99.90
10968;DHT22;5536;49.602;10.980;2023-05-21T04:27:08;17.10;99.90
10968;DHT22;5536;49.602;10.980;2023-05-21T04:29:35;17.10;99.90
10968;DHT22;5536;49.602;10.980;2023-05-21T04:32:08;17.20;99.90
10968;DHT22;5536;49.602;10.980;2023-05-21T04:34:36;17.10;99.90
10968;DHT22;5536;49.602;10.980;2023-05-21T04:37:04;17.10;99.90
10968;DHT22;5536;49.602;10.980;2023-05-21T04:39:31;17.20;99.90
10968;DHT22;5536;49.602;10.980;2023-05-21T04:41:59;17.10;99.90
10968;DHT22;5536;49.602;10.980;2023-05-21T04:44:27;17.10;99.90
10968;DHT22;5536;49.602;10.980;2023-05-21T04:46:54;17.20;99.90
10968;DHT22;5536;49.602;10.980;2023-05-21T04:49:24;17.20;99.90
10968;DHT22;5536;49.602;10.980;2023-05-21T04:51:51;17.30;99.90
10968;DHT22;5536;49.602;10.980;2023-05-21T04:54:18;17.30;99.90
10968;DHT22;5536;49.602;10.980;2023-05-21T04:56:45;17.40;99.90
10968;DHT22;5536;49.602;10.980;2023-05-21T04:59:13;17.40;99.90
10968;DHT22;5536;49.602;10.980;2023-05-21T05:01:40;17.40;99.90
10968;DHT22;5536;49.602;10.980;2023-05-21T05:04:08;17.40;99.90
10968;DHT22;5536;49.602;10.980;2023-05-21T05:06:37;17.40;99.90
10968;DHT22;5536;49.602;10.980;2023-05-21T05:09:04;17.50;99.90
10968;DHT22;5536;49.602;10.980;2023-05-21T05:11:34;17.50;99.90
10968;DHT22;5536;49.602;10.980;2023-05-21T05:14:01;17.60;99.90
10968;DHT22;5536;49.602;10.980;2023-05-21T05:16:28;17.70;99.90
10968;DHT22;5536;49.602;10.980;2023-05-21T05:18:55;17.70;99.90
10968;DHT22;5536;49.602;10.980;2023-05-21T05:21:23;17.70;99.90
10968;DHT22;5536;49.602;10.980;2023-05-21T05:23:52;17.70;99.90
10968;DHT22;5536;49.602;10.980;2023-05-21T05:26:19;17.80;99.90
10968;DHT22;5536;49.602;10.980;2023-05-21T05:28:46;17.90;99.90
10968;DHT22;5536;49.602;10.980;2023-05-21T05:31:13;17.90;99.90
10968;DHT22;5536;49.602;10.980;2023-05-21T05:33:40;18.00;99.90
10968;DHT22;5536;49.602;10.980;2023-05-21T05:36:07;18.10;99.90
10968;DHT22;5536;49.602;10.980;2023-05-21T05:38:34;18.10;99.90
10968;DHT22;5536;49.602;10.980;2023-05-21T05:41:02;18.20;99.90
10968;DHT22;5536;49.602;10.980;2023-05-21T05:43:30;18.20;99.90
10968;DHT22;5536;49.602;10.980;2023-05-21T05:45:57;18.30;99.90
10968;DHT22;5536;49.602;10.980;2023-05-21T05:48:24;18.30;99.90
10968;DHT22;5536;49.602;10.980;2023-05-21T05:50:51;18.40;99.90
10968;DHT22;5536;49.602;10.980;2023-05-21T05:53:19;18.50;99.90
10968;DHT22;5536;49.602;10.980;2023-05-21T05:55:46;18.50;99.90
10968;DHT22;5536;49.602;10.980;2023-05-21T05:58:15;18.60;99.90
10968;DHT22;5536;49.602;10.980;2023-05-21T06:00:42;18.70;99.90
10968;DHT22;5536;49.602;10.980;2023-05-21T06:03:10;18.70;99.90
10968;DHT22;5536;49.602;10.980;2023-05-21T06:05:37;18.80;99.90
10968;DHT22;5536;49.602;10.980;2023-05-21T06:08:05;18.70;99.90
10968;DHT22;5536;49.602;10.980;2023-05-21T06:10:32;18.80;99.90
10968;DHT22;5536;49.602;10.980;2023-05-21T06:12:59;18.80;99.90
10968;DHT22;5536;49.602;10.980;2023-05-21T06:15:28;18.90;99.90
10968;DHT22;5536;49.602;10.980;2023-05-21T06:17:55;18.80;99.90
10968;DHT22;5536;49.602;10.980;2023-05-21T06:20:22;18.90;99.90
10968;DHT22;5536;49.602;10.980;2023-05-21T06:22:49;19.00;99.90
10968;DHT22;5536;49.602;10.980;2023-05-21T06:25:16;19.00;99.90
10968;DHT22;5536;49.602;10.980;2023-05-21T06:27:43;19.10;99.90
10968;DHT22;5536;49.602;10.980;2023-05-21T06:30:11;19.10;99.90
10968;DHT22;5536;49.602;10.980;2023-05-21T06:32:39;19.10;99.90
10968;DHT22;5536;49.602;10.980;2023-05-21T06:35:07;19.10;99.90
10968;DHT22;5536;49.602;10.980;2023-05-21T06:37:34;19.10;99.90
10968;DHT22;5536;49.602;10.980;2023-05-21T06:40:02;19.20;99.90
10968;DHT22;5536;49.602;10.980;2023-05-21T06:42:29;19.20;99.90
10968;DHT22;5536;49.602;10.980;2023-05-21T06:44:56;19.30;99.90
10968;DHT22;5536;49.602;10.980;2023-05-21T06:47:23;19.40;99.90
10968;DHT22;5536;49.602;10.980;2023-05-21T06:49:52;19.40;99.90
10968;DHT22;5536;49.602;10.980;2023-05-21T06:52:19;19.50;99.90
10968;DHT22;5536;49.602;10.980;2023-05-21T06:54:46;19.60;99.90
10968;DHT22;5536;49.602;10.980;2023-05-21T06:57:13;19.60;99.90
10968;DHT22;5536;49.602;10.980;2023-05-21T06:59:40;19.60;99.90
10968;DHT22;5536;49.602;10.980;2023-05-21T07:02:08;19.60;99.90
10968;DHT22;5536;49.602;10.980;2023-05-21T07:04:35;19.60;99.90
10968;DHT22;5536;49.602;10.980;2023-05-21T07:07:03;19.50;99.90
10968;DHT22;5536;49.602;10.980;2023-05-21T07:09:31;19.60;99.90
10968;DHT22;5536;49.602;10.980;2023-05-21T07:11:58;19.80;99.90
10968;DHT22;5536;49.602;10.980;2023-05-21T07:14:25;19.80;99.90
10968;DHT22;5536;49.602;10.980;2023-05-21T07:16:52;19.90;99.90
10968;DHT22;5536;49.602;10.980;2023-05-21T07:19:20;20.00;99.90
10968;DHT22;5536;49.602;10.980;2023-05-21T07:21:47;20.10;99.90
10968;DHT22;5536;49.602;10.980;2023-05-21T07:24:16;20.00;99.90
10968;DHT22;5536;49.602;10.980;2023-05-21T07:26:43;20.20;99.90
10968;DHT22;5536;49.602;10.980;2023-05-21T07:29:10;20.20;99.90
10968;DHT22;5536;49.602;10.980;2023-05-21T07:31:37;20.10;99.90
10968;DHT22;5536;49.602;10.980;2023-05-21T07:34:04;20.20;99.90
10968;DHT22;5536;49.602;10.980;2023-05-21T07:36:31;20.20;99.90
10968;DHT22;5536;49.602;10.980;2023-05-21T07:38:59;20.30;99.90
10968;DHT22;5536;49.602;10.980;2023-05-21T07:41:27;20.40;99.90
10968;DHT22;5536;49.602;10.980;2023-05-21T07:43:54;20.30;99.90
10968;DHT22;5536;49.602;10.980;2023-05-21T07:46:21;20.40;99.90
10968;DHT22;5536;49.602;10.980;2023-05-21T07:48:48;20.40;99.90
10968;DHT22;5536;49.602;10.980;2023-05-21T07:51:15;20.40;99.90
10968;DHT22;5536;49.602;10.980;2023-05-21T07:53:43;20.50;99.90
10968;DHT22;5536;49.602;10.980;2023-05-21T07:56:10;20.60;99.90
10968;DHT22;5536;49.602;10.980;2023-05-21T07:58:38;20.60;99.90
10968;DHT22;5536;49.602;10.980;2023-05-21T08:01:06;20.60;99.90
10968;DHT22;5536;49.602;10.980;2023-05-21T08:03:33;20.60;99.90
10968;DHT22;5536;49.602;10.980;2023-05-21T08:06:00;20.60;99.90
10968;DHT22;5536;49.602;10.980;2023-05-21T08:08:27;20.60;99.90
10968;DHT22;5536;49.602;10.980;2023-05-21T08:10:54;20.60;99.90
10968;DHT22;5536;49.602;10.980;2023-05-21T08:13:21;20.70;99.90
10968;DHT22;5536;49.602;10.980;2023-05-21T08:15:50;20.80;99.90
10968;DHT22;5536;49.602;10.980;2023-05-21T08:18:17;20.70;99.90
10968;DHT22;5536;49.602;10.980;2023-05-21T08:20:44;20.70;99.90
10968;DHT22;5536;49.602;10.980;2023-05-21T08:23:12;20.80;99.90
10968;DHT22;5536;49.602;10.980;2023-05-21T08:25:40;20.90;99.90
10968;DHT22;5536;49.602;10.980;2023-05-21T08:28:07;20.90;99.90
10968;DHT22;5536;49.602;10.980;2023-05-21T08:30:34;20.90;99.90
10968;DHT22;5536;49.602;10.980;2023-05-21T08:33:02;20.90;99.90
10968;DHT22;5536;49.602;10.980;2023-05-21T08:35:29;21.10;99.90
10968;DHT22;5536;49.602;10.980;2023-05-21T08:37:56;21.10;99.90
10968;DHT22;5536;49.602;10.980;2023-05-21T08:40:24;21.10;99.90
10968;DHT22;5536;49.602;10.980;2023-05-21T08:42:51;21.20;99.90
10968;DHT22;5536;49.602;10.980;2023-05-21T08:45:20;21.20;99.90
10968;DHT22;5536;49.602;10.980;2023-05-21T08:47:47;21.20;99.90
10968;DHT22;5536;49.602;10.980;2023-05-21T08:52:49;21.30;99.90
10968;DHT22;5536;49.602;10.980;2023-05-21T08:55:17;21.40;99.90
10968;DHT22;5536;49.602;10.980;2023-05-21T08:57:44;21.50;99.90
10968;DHT22;5536;49.602;10.980;2023-05-21T09:00:12;21.50;99.90
10968;DHT22;5536;49.602;10.980;2023-05-21T09:02:39;21.50;99.90
10968;DHT22;5536;49.602;10.980;2023-05-21T09:05:09;21.60;99.90
10968;DHT22;5536;49.602;10.980;2023-05-21T09:07:41;21.70;99.90
10968;DHT22;5536;49.602;10.980;2023-05-21T09:10:12;21.70;99.90
10968;DHT22;5536;49.602;10.980;2023-05-21T09:12:39;21.70;99.90
10968;DHT22;5536;49.602;10.980;2023-05-21T09:15:07;21.70;99.90
10968;DHT22;5536;49.602;10.980;2023-05-21T09:17:35;21.80;99.90
10968;DHT22;5536;49.602;10.980;2023-05-21T09:20:10;21.80;99.90
10968;DHT22;5536;49.602;10.980;2023-05-21T09:22:41;21.90;99.90
10968;DHT22;5536;49.602;10.980;2023-05-21T09:25:14;22.10;99.90
10968;DHT22;5536;49.602;10.980;2023-05-21T09:27:41;22.00;99.90
10968;DHT22;5536;49.602;10.980;2023-05-21T09:30:10;22.10;99.90
10968;DHT22;5536;49.602;10.980;2023-05-21T09:32:38;22.20;99.90
10968;DHT22;5536;49.602;10.980;2023-05-21T09:35:06;22.40;99.90
10968;DHT22;5536;49.602;10.980;2023-05-21T09:37:36;22.60;99.90
10968;DHT22;5536;49.602;10.980;2023-05-21T09:40:10;22.80;99.90
10968;DHT22;5536;49.602;10.980;2023-05-21T09:42:39;22.90;99.90
10968;DHT22;5536;49.602;10.980;2023-05-21T09:45:08;22.90;99.90
10968;DHT22;5536;49.602;10.980;2023-05-21T09:47:40;23.10;99.90
10968;DHT22;5536;49.602;10.980;2023-05-21T09:50:09;23.10;99.90
10968;DHT22;5536;49.602;10.980;2023-05-21T09:52:36;23.20;99.90
10968;DHT22;5536;49.602;10.980;2023-05-21T09:55:05;23.20;99.90
10968;DHT22;5536;49.602;10.980;2023-05-21T09:57:41;23.30;99.90
10968;DHT22;5536;49.602;10.980;2023-05-21T10:00:18;23.50;99.90
10968;DHT22;5536;49.602;10.980;2023-05-21T10:02:47;23.40;99.90
10968;DHT22;5536;49.602;10.980;2023-05-21T10:05:14;23.40;99.90
10968;DHT22;5536;49.602;10.980;2023-05-21T10:07:48;23.40;99.90
10968;DHT22;5536;49.602;10.980;2023-05-21T10:10:17;23.40;99.90
10968;DHT22;5536;49.602;10.980;2023-05-21T10:12:47;23.30;99.90
10968;DHT22;5536;49.602;10.980;2023-05-21T10:15:21;23.30;99.90
10968;DHT22;5536;49.602;10.980;2023-05-21T10:17:49;23.10;99.90
10968;DHT22;5536;49.602;10.980;2023-05-21T10:20:18;23.00;99.90
10968;DHT22;5536;49.602;10.980;2023-05-21T10:22:45;23.10;99.90
10968;DHT22;5536;49.602;10.980;2023-05-21T10:25:13;23.20;99.90
10968;DHT22;5536;49.602;10.980;2023-05-21T10:27:41;23.20;99.90
10968;DHT22;5536;49.602;10.980;2023-05-21T10:30:10;23.20;99.90
10968;DHT22;5536;49.602;10.980;2023-05-21T10:32:39;23.10;99.90
10968;DHT22;5536;49.602;10.980;2023-05-21T10:35:08;23.30;99.90
10968;DHT22;5536;49.602;10.980;2023-05-21T10:37:35;23.30;99.90
10968;DHT22;5536;49.602;10.980;2023-05-21T10:40:04;23.30;99.90
10968;DHT22;5536;49.602;10.980;2023-05-21T10:45:46;23.60;99.90
10968;DHT22;5536;49.602;10.980;2023-05-21T10:48:30;23.80;99.90
10968;DHT22;5536;49.602;10.980;2023-05-21T10:51:09;23.90;99.90
10968;DHT22;5536;49.602;10.980;2023-05-21T10:54:02;24.00;99.90
10968;DHT22;5536;49.602;10.980;2023-05-21T10:56:38;24.30;99.90
10968;DHT22;5536;49.602;10.980;2023-05-21T10:59:13;24.30;99.90
10968;DHT22;5536;49.602;10.980;2023-05-21T11:01:48;24.40;99.90
10968;DHT22;5536;49.602;10.980;2023-05-21T11:04:21;24.60;99.90
10968;DHT22;5536;49.602;10.980;2023-05-21T11:06:48;24.50;99.90
10968;DHT22;5536;49.602;10.980;2023-05-21T11:09:15;24.50;99.90
10968;DHT22;5536;49.602;10.980;2023-05-21T11:11:44;24.60;99.90
10968;DHT22;5536;49.602;10.980;2023-05-21T11:14:30;24.70;99.90
10968;DHT22;5536;49.602;10.980;2023-05-21T11:17:02;24.80;99.90
10968;DHT22;5536;49.602;10.980;2023-05-21T11:19:34;25.00;99.90
10968;DHT22;5536;49.602;10.980;2023-05-21T11:22:06;25.20;99.90
10968;DHT22;5536;49.602;10.980;2023-05-21T11:24:36;25.30;99.90
10968;DHT22;5536;49.602;10.980;2023-05-21T11:27:04;25.40;99.90
10968;DHT22;5536;49.602;10.980;2023-05-21T11:29:42;25.30;99.90
10968;DHT22;5536;49.602;10.980;2023-05-21T11:32:12;25.30;99.90
10968;DHT22;5536;49.602;10.980;2023-05-21T11:34:41;25.40;99.90
10968;DHT22;5536;49.602;10.980;2023-05-21T11:37:37;25.50;99.90
10968;DHT22;5536;49.602;10.980;2023-05-21T11:40:21;25.40;99.90
10968;DHT22;5536;49.602;10.980;2023-05-21T11:42:51;25.50;99.90
10968;DHT22;5536;49.602;10.980;2023-05-21T11:45:19;25.40;99.90
10968;DHT22;5536;49.602;10.980;2023-05-21T11:47:49;25.40;99.90
10968;DHT22;5536;49.602;10.980;2023-05-21T11:50:17;25.60;99.90
10968;DHT22;5536;49.602;10.980;2023-05-21T11:52:45;25.70;99.90
10968;DHT22;5536;49.602;10.980;2023-05-21T11:55:12;25.80;99.90
10968;DHT22;5536;49.602;10.980;2023-05-21T11:57:41;26.00;99.90
10968;DHT22;5536;49.602;10.980;2023-05-21T12:00:13;26.20;99.90
10968;DHT22;5536;49.602;10.980;2023-05-21T12:02:45;26.10;99.90
10968;DHT22;5536;49.602;10.980;2023-05-21T12:05:14;26.50;99.90
10968;DHT22;5536;49.602;10.980;2023-05-21T12:07:41;26.80;99.90
10968;DHT22;5536;49.602;10.980;2023-05-21T12:10:09;26.80;99.90
10968;DHT22;5536;49.602;10.980;2023-05-21T12:12:36;26.90;99.90
10968;DHT22;5536;49.602;10.980;2023-05-21T12:15:04;26.90;99.90
10968;DHT22;5536;49.602;10.980;2023-05-21T12:17:31;27.00;99.90
10968;DHT22;5536;49.602;10.980;2023-05-21T12:19:58;27.20;99.90
10968;DHT22;5536;49.602;10.980;2023-05-21T12:22:31;27.50;99.90
10968;DHT22;5536;49.602;10.980;2023-05-21T12:24:58;28.30;99.90
10968;DHT22;5536;49.602;10.980;2023-05-21T12:27:26;28.50;99.90
10968;DHT22;5536;49.602;10.980;2023-05-21T12:29:55;28.90;99.90
10968;DHT22;5536;49.602;10.980;2023-05-21T12:32:26;29.40;99.90
10968;DHT22;5536;49.602;10.980;2023-05-21T12:34:54;29.40;99.90
10968;DHT22;5536;49.602;10.980;2023-05-21T12:37:23;30.10;99.90
10968;DHT22;5536;49.602;10.980;2023-05-21T12:39:53;30.60;99.90
10968;DHT22;5536;49.602;10.980;2023-05-21T12:42:24;30.40;99.90
10968;DHT22;5536;49.602;10.980;2023-05-21T12:44:52;30.00;99.90
10968;DHT22;5536;49.602;10.980;2023-05-21T12:47:22;29.20;99.90
10968;DHT22;5536;49.602;10.980;2023-05-21T12:49:53;28.70;99.90
10968;DHT22;5536;49.602;10.980;2023-05-21T12:52:22;28.60;99.90
10968;DHT22;5536;49.602;10.980;2023-05-21T12:54:52;28.20;99.90
10968;DHT22;5536;49.602;10.980;2023-05-21T12:57:21;28.40;99.90
10968;DHT22;5536;49.602;10.980;2023-05-21T12:59:50;28.20;99.90
10968;DHT22;5536;49.602;10.980;2023-05-21T13:02:22;28.20;99.90
10968;DHT22;5536;49.602;10.980;2023-05-21T13:04:54;27.80;99.90
10968;DHT22;5536;49.602;10.980;2023-05-21T13:07:22;28.40;99.90
10968;DHT22;5536;49.602;10.980;2023-05-21T13:09:49;27.80;99.90
10968;DHT22;5536;49.602;10.980;2023-05-21T13:12:20;28.10;99.90
10968;DHT22;5536;49.602;10.980;2023-05-21T13:14:48;28.60;99.90
10968;DHT22;5536;49.602;10.980;2023-05-21T13:17:15;28.20;99.90
10968;DHT22;5536;49.602;10.980;2023-05-21T13:20:04;27.60;99.90
10968;DHT22;5536;49.602;10.980;2023-05-21T13:22:30;27.40;99.90
10968;DHT22;5536;49.602;10.980;2023-05-21T13:24:57;28.40;99.90
10968;DHT22;5536;49.602;10.980;2023-05-21T13:27:25;28.40;99.90
10968;DHT22;5536;49.602;10.980;2023-05-21T13:29:53;29.30;99.90
10968;DHT22;5536;49.602;10.980;2023-05-21T13:32:20;30.00;99.90
10968;DHT22;5536;49.602;10.980;2023-05-21T13:34:47;30.50;99.90
10968;DHT22;5536;49.602;10.980;2023-05-21T13:37:14;29.60;99.90
10968;DHT22;5536;49.602;10.980;2023-05-21T13:39:41;29.60;99.90
10968;DHT22;5536;49.602;10.980;2023-05-21T13:42:07;30.20;99.90
10968;DHT22;5536;49.602;10.980;2023-05-21T13:44:36;31.00;99.90
10968;DHT22;5536;49.602;10.980;2023-05-21T13:47:04;31.80;99.90
10968;DHT22;5536;49.602;10.980;2023-05-21T13:49:32;32.20;99.90
10968;DHT22;5536;49.602;10.980;2023-05-21T13:51:59;32.50;99.90
10968;DHT22;5536;49.602;10.980;2023-05-21T13:54:27;33.20;99.90
10968;DHT22;5536;49.602;10.980;2023-05-21T13:56:54;33.50;99.90
10968;DHT22;5536;49.602;10.980;2023-05-21T13:59:21;33.00;99.90
10968;DHT22;5536;49.602;10.980;2023-05-21T14:01:49;32.30;99.90
10968;DHT22;5536;49.602;10.980;2023-05-21T14:04:17;32.60;99.90
10968;DHT22;5536;49.602;10.980;2023-05-21T14:06:44;32.90;99.90
10968;DHT22;5536;49.602;10.980;2023-05-21T14:09:12;32.60;99.90
10968;DHT22;5536;49.602;10.980;2023-05-21T14:11:39;32.50;99.90
10968;DHT22;5536;49.602;10.980;2023-05-21T14:14:07;32.00;99.90
10968;DHT22;5536;49.602;10.980;2023-05-21T14:16:34;30.70;99.90
10968;DHT22;5536;49.602;10.980;2023-05-21T14:19:02;30.30;99.90
10968;DHT22;5536;49.602;10.980;2023-05-21T14:21:29;29.80;99.90
10968;DHT22;5536;49.602;10.980;2023-05-21T14:23:57;29.40;99.90
10968;DHT22;5536;49.602;10.980;2023-05-21T14:26:24;29.90;99.90
10968;DHT22;5536;49.602;10.980;2023-05-21T14:28:51;30.60;99.90
10968;DHT22;5536;49.602;10.980;2023-05-21T14:31:19;31.40;99.90
10968;DHT22;5536;49.602;10.980;2023-05-21T14:33:46;31.40;99.90
10968;DHT22;5536;49.602;10.980;2023-05-21T14:36:14;30.20;99.90
10968;DHT22;5536;49.602;10.980;2023-05-21T14:38:41;30.50;99.90
10968;DHT22;5536;49.602;10.980;2023-05-21T14:41:08;31.10;99.90
10968;DHT22;5536;49.602;10.980;2023-05-21T14:43:35;31.30;99.90
10968;DHT22;5536;49.602;10.980;2023-05-21T14:46:02;31.30;99.90
10968;DHT22;5536;49.602;10.980;2023-05-21T14:48:29;31.40;99.90
10968;DHT22;5536;49.602;10.980;2023-05-21T14:50:57;31.60;99.90
10968;DHT22;5536;49.602;10.980;2023-05-21T14:53:26;31.30;99.90
10968;DHT22;5536;49.602;10.980;2023-05-21T14:55:53;30.80;99.90
10968;DHT22;5536;49.602;10.980;2023-05-21T14:58:23;30.80;99.90
10968;DHT22;5536;49.602;10.980;2023-05-21T15:00:56;30.80;99.90
10968;DHT22;5536;49.602;10.980;2023-05-21T15:03:24;30.60;99.90
10968;DHT22;5536;49.602;10.980;2023-05-21T15:05:51;30.30;99.90
10968;DHT22;5536;49.602;10.980;2023-05-21T15:08:18;30.30;99.90
10968;DHT22;5536;49.602;10.980;2023-05-21T15:10:47;30.20;99.90
10968;DHT22;5536;49.602;10.980;2023-05-21T15:13:14;29.70;99.90
10968;DHT22;5536;49.602;10.980;2023-05-21T15:15:41;29.20;99.90
10968;DHT22;5536;49.602;10.980;2023-05-21T15:18:08;28.90;99.90
10968;DHT22;5536;49.602;10.980;2023-05-21T15:20:35;29.00;99.90
10968;DHT22;5536;49.602;10.980;2023-05-21T15:23:02;28.90;99.90
10968;DHT22;5536;49.602;10.980;2023-05-21T15:25:29;28.90;99.90
10968;DHT22;5536;49.602;10.980;2023-05-21T15:27:58;28.80;99.90
10968;DHT22;5536;49.602;10.980;2023-05-21T15:30:25;28.60;99.90
10968;DHT22;5536;49.602;10.980;2023-05-21T15:32:52;28.80;99.90
10968;DHT22;5536;49.602;10.980;2023-05-21T15:35:19;28.90;99.90
10968;DHT22;5536;49.602;10.980;2023-05-21T15:37:47;28.90;99.90
10968;DHT22;5536;49.602;10.980;2023-05-21T15:40:14;28.60;99.90
10968;DHT22;5536;49.602;10.980;2023-05-21T15:42:41;28.40;99.90